Terminal Aerodrome Forecast
Issued by NWS Glasgow, MT

Home | Current Version | Previous Version | Text Only | Print | Product List | Glossary On
Versions: 1 2 3 4 5 6 7 8 9 10 11 12 13 14 15 16 17
000
FTUS45 KGGW 060500
TAFGGW
TAF
KGGW 060520Z 0606/0706 31008KT P6SM -SHRA OVC050
     FM060900 VRB05KT P6SM SCT050 BKN090
     FM061200 VRB06KT 5SM HZ SCT090
     FM070000 11008KT P6SM FEW250=

USA.gov is the U.S. government's official web portal to all federal, state and local government web resources and services.